sensor_id;sensor_type;location;lat;lon;timestamp;P1;durP1;ratioP1;P2;durP2;ratioP2
11761;SDS011;5938;47.098;15.474;2024-01-07T00:02:18;41.47;;;12.43;;
11761;SDS011;5938;47.098;15.474;2024-01-07T00:06:21;38.87;;;10.60;;
11761;SDS011;5938;47.098;15.474;2024-01-07T00:10:25;41.33;;;12.00;;
11761;SDS011;5938;47.098;15.474;2024-01-07T00:14:29;39.83;;;10.43;;
11761;SDS011;5938;47.098;15.474;2024-01-07T00:18:33;41.90;;;11.63;;
11761;SDS011;5938;47.098;15.474;2024-01-07T00:22:36;39.80;;;10.77;;
11761;SDS011;5938;47.098;15.474;2024-01-07T00:26:39;42.87;;;11.83;;
11761;SDS011;5938;47.098;15.474;2024-01-07T00:30:44;40.50;;;10.83;;
11761;SDS011;5938;47.098;15.474;2024-01-07T00:34:47;40.77;;;10.40;;
11761;SDS011;5938;47.098;15.474;2024-01-07T00:38:55;39.30;;;10.03;;
11761;SDS011;5938;47.098;15.474;2024-01-07T00:42:59;39.50;;;9.77;;
11761;SDS011;5938;47.098;15.474;2024-01-07T00:47:04;39.10;;;9.50;;
11761;SDS011;5938;47.098;15.474;2024-01-07T00:51:07;39.37;;;9.37;;
11761;SDS011;5938;47.098;15.474;2024-01-07T00:55:11;38.70;;;8.93;;
11761;SDS011;5938;47.098;15.474;2024-01-07T00:59:14;37.03;;;8.10;;
11761;SDS011;5938;47.098;15.474;2024-01-07T01:03:19;36.60;;;9.10;;
11761;SDS011;5938;47.098;15.474;2024-01-07T01:07:22;37.07;;;7.03;;
11761;SDS011;5938;47.098;15.474;2024-01-07T01:11:26;38.20;;;9.07;;
11761;SDS011;5938;47.098;15.474;2024-01-07T01:15:29;39.17;;;7.90;;
11761;SDS011;5938;47.098;15.474;2024-01-07T01:19:34;37.00;;;8.37;;
11761;SDS011;5938;47.098;15.474;2024-01-07T01:23:37;38.03;;;8.97;;
11761;SDS011;5938;47.098;15.474;2024-01-07T01:27:40;38.90;;;8.53;;
11761;SDS011;5938;47.098;15.474;2024-01-07T01:31:44;39.90;;;8.97;;
11761;SDS011;5938;47.098;15.474;2024-01-07T01:35:48;38.70;;;6.97;;
11761;SDS011;5938;47.098;15.474;2024-01-07T01:39:51;35.10;;;6.73;;
11761;SDS011;5938;47.098;15.474;2024-01-07T01:43:56;35.80;;;7.07;;
11761;SDS011;5938;47.098;15.474;2024-01-07T01:48:00;36.57;;;8.03;;
11761;SDS011;5938;47.098;15.474;2024-01-07T01:52:05;33.80;;;5.80;;
11761;SDS011;5938;47.098;15.474;2024-01-07T01:56:09;34.80;;;6.43;;
11761;SDS011;5938;47.098;15.474;2024-01-07T02:00:12;33.80;;;5.00;;
11761;SDS011;5938;47.098;15.474;2024-01-07T02:04:16;35.77;;;5.70;;
11761;SDS011;5938;47.098;15.474;2024-01-07T02:08:21;34.70;;;5.27;;
11761;SDS011;5938;47.098;15.474;2024-01-07T02:12:27;35.13;;;4.93;;
11761;SDS011;5938;47.098;15.474;2024-01-07T02:16:30;33.27;;;4.60;;
11761;SDS011;5938;47.098;15.474;2024-01-07T02:20:33;32.30;;;4.23;;
11761;SDS011;5938;47.098;15.474;2024-01-07T02:24:38;31.40;;;3.90;;
11761;SDS011;5938;47.098;15.474;2024-01-07T02:28:42;32.73;;;4.30;;
11761;SDS011;5938;47.098;15.474;2024-01-07T02:32:45;32.00;;;4.13;;
11761;SDS011;5938;47.098;15.474;2024-01-07T02:36:48;33.10;;;4.70;;
11761;SDS011;5938;47.098;15.474;2024-01-07T02:40:53;32.40;;;4.33;;
11761;SDS011;5938;47.098;15.474;2024-01-07T02:44:56;34.03;;;4.00;;
11761;SDS011;5938;47.098;15.474;2024-01-07T02:48:59;32.27;;;3.80;;
11761;SDS011;5938;47.098;15.474;2024-01-07T02:53:03;32.90;;;3.60;;
11761;SDS011;5938;47.098;15.474;2024-01-07T02:57:08;32.47;;;3.70;;
11761;SDS011;5938;47.098;15.474;2024-01-07T03:01:11;32.07;;;3.77;;
11761;SDS011;5938;47.098;15.474;2024-01-07T03:05:15;31.90;;;4.03;;
11761;SDS011;5938;47.098;15.474;2024-01-07T03:09:18;31.67;;;4.10;;
11761;SDS011;5938;47.098;15.474;2024-01-07T03:13:23;32.13;;;4.13;;
11761;SDS011;5938;47.098;15.474;2024-01-07T03:17:26;32.20;;;3.50;;
11761;SDS011;5938;47.098;15.474;2024-01-07T03:21:30;31.73;;;3.33;;
11761;SDS011;5938;47.098;15.474;2024-01-07T03:25:33;31.30;;;3.70;;
11761;SDS011;5938;47.098;15.474;2024-01-07T03:29:38;33.20;;;4.13;;
11761;SDS011;5938;47.098;15.474;2024-01-07T03:33:42;35.00;;;3.70;;
11761;SDS011;5938;47.098;15.474;2024-01-07T03:37:49;31.97;;;3.60;;
11761;SDS011;5938;47.098;15.474;2024-01-07T03:41:54;30.70;;;3.23;;
11761;SDS011;5938;47.098;15.474;2024-01-07T03:45:59;32.23;;;3.63;;
11761;SDS011;5938;47.098;15.474;2024-01-07T03:50:03;31.90;;;3.43;;
11761;SDS011;5938;47.098;15.474;2024-01-07T03:54:06;34.77;;;3.87;;
11761;SDS011;5938;47.098;15.474;2024-01-07T03:58:09;31.70;;;3.27;;
11761;SDS011;5938;47.098;15.474;2024-01-07T04:02:14;32.00;;;3.67;;
11761;SDS011;5938;47.098;15.474;2024-01-07T04:06:18;31.70;;;3.20;;
11761;SDS011;5938;47.098;15.474;2024-01-07T04:10:21;31.60;;;3.47;;
11761;SDS011;5938;47.098;15.474;2024-01-07T04:14:25;31.67;;;3.60;;
11761;SDS011;5938;47.098;15.474;2024-01-07T04:18:30;32.20;;;3.63;;
11761;SDS011;5938;47.098;15.474;2024-01-07T04:22:34;32.20;;;3.93;;
11761;SDS011;5938;47.098;15.474;2024-01-07T04:26:37;31.77;;;3.93;;
11761;SDS011;5938;47.098;15.474;2024-01-07T04:30:40;30.80;;;3.33;;
11761;SDS011;5938;47.098;15.474;2024-01-07T04:34:45;31.80;;;3.80;;
11761;SDS011;5938;47.098;15.474;2024-01-07T04:38:48;32.83;;;4.17;;
11761;SDS011;5938;47.098;15.474;2024-01-07T04:42:52;31.57;;;3.40;;
11761;SDS011;5938;47.098;15.474;2024-01-07T04:46:55;33.70;;;3.50;;
11761;SDS011;5938;47.098;15.474;2024-01-07T04:51:00;31.37;;;3.47;;
11761;SDS011;5938;47.098;15.474;2024-01-07T04:55:04;32.80;;;4.43;;
11761;SDS011;5938;47.098;15.474;2024-01-07T04:59:08;31.40;;;3.27;;
11761;SDS011;5938;47.098;15.474;2024-01-07T05:03:11;32.17;;;3.47;;
11761;SDS011;5938;47.098;15.474;2024-01-07T05:07:16;32.03;;;3.90;;
11761;SDS011;5938;47.098;15.474;2024-01-07T05:11:19;31.87;;;3.40;;
11761;SDS011;5938;47.098;15.474;2024-01-07T05:15:23;31.43;;;3.40;;
11761;SDS011;5938;47.098;15.474;2024-01-07T05:19:26;32.10;;;4.13;;
11761;SDS011;5938;47.098;15.474;2024-01-07T05:23:32;32.70;;;3.80;;
11761;SDS011;5938;47.098;15.474;2024-01-07T05:27:35;33.80;;;4.30;;
11761;SDS011;5938;47.098;15.474;2024-01-07T05:31:39;32.20;;;3.83;;
11761;SDS011;5938;47.098;15.474;2024-01-07T05:35:43;31.47;;;3.50;;
11761;SDS011;5938;47.098;15.474;2024-01-07T05:39:47;32.60;;;4.03;;
11761;SDS011;5938;47.098;15.474;2024-01-07T05:43:51;32.60;;;3.87;;
11761;SDS011;5938;47.098;15.474;2024-01-07T05:47:54;32.43;;;3.97;;
11761;SDS011;5938;47.098;15.474;2024-01-07T05:51:58;31.77;;;3.33;;
11761;SDS011;5938;47.098;15.474;2024-01-07T05:56:03;32.07;;;3.30;;
11761;SDS011;5938;47.098;15.474;2024-01-07T06:00:07;31.67;;;3.20;;
11761;SDS011;5938;47.098;15.474;2024-01-07T06:04:12;32.17;;;3.30;;
11761;SDS011;5938;47.098;15.474;2024-01-07T06:08:17;36.13;;;4.70;;
11761;SDS011;5938;47.098;15.474;2024-01-07T06:12:22;36.40;;;6.87;;
11761;SDS011;5938;47.098;15.474;2024-01-07T06:16:25;44.50;;;9.57;;
11761;SDS011;5938;47.098;15.474;2024-01-07T06:20:28;41.57;;;8.10;;
11761;SDS011;5938;47.098;15.474;2024-01-07T06:24:31;42.73;;;8.60;;
11761;SDS011;5938;47.098;15.474;2024-01-07T06:28:36;37.87;;;6.73;;
11761;SDS011;5938;47.098;15.474;2024-01-07T06:32:39;34.63;;;5.10;;
11761;SDS011;5938;47.098;15.474;2024-01-07T06:36:43;36.67;;;4.80;;
11761;SDS011;5938;47.098;15.474;2024-01-07T06:40:47;31.53;;;3.27;;
11761;SDS011;5938;47.098;15.474;2024-01-07T06:44:52;33.63;;;3.43;;
11761;SDS011;5938;47.098;15.474;2024-01-07T06:48:55;32.60;;;3.17;;
11761;SDS011;5938;47.098;15.474;2024-01-07T06:53:00;31.13;;;2.90;;
11761;SDS011;5938;47.098;15.474;2024-01-07T06:57:04;32.57;;;4.43;;
11761;SDS011;5938;47.098;15.474;2024-01-07T07:01:09;31.70;;;3.47;;
11761;SDS011;5938;47.098;15.474;2024-01-07T07:05:13;36.43;;;4.10;;
11761;SDS011;5938;47.098;15.474;2024-01-07T07:09:16;32.73;;;3.90;;
11761;SDS011;5938;47.098;15.474;2024-01-07T07:13:20;32.20;;;4.40;;
11761;SDS011;5938;47.098;15.474;2024-01-07T07:17:25;32.10;;;3.87;;
11761;SDS011;5938;47.098;15.474;2024-01-07T07:21:28;33.03;;;4.37;;
11761;SDS011;5938;47.098;15.474;2024-01-07T07:25:32;33.23;;;4.23;;
11761;SDS011;5938;47.098;15.474;2024-01-07T07:29:35;32.60;;;4.60;;
11761;SDS011;5938;47.098;15.474;2024-01-07T07:33:39;32.07;;;5.00;;
11761;SDS011;5938;47.098;15.474;2024-01-07T07:37:43;32.00;;;5.03;;
11761;SDS011;5938;47.098;15.474;2024-01-07T07:41:46;33.23;;;5.83;;
11761;SDS011;5938;47.098;15.474;2024-01-07T07:45:50;35.23;;;7.87;;
11761;SDS011;5938;47.098;15.474;2024-01-07T07:49:55;38.03;;;8.37;;
11761;SDS011;5938;47.098;15.474;2024-01-07T07:53:58;36.13;;;8.00;;
11761;SDS011;5938;47.098;15.474;2024-01-07T07:58:02;34.67;;;6.83;;
11761;SDS011;5938;47.098;15.474;2024-01-07T08:02:05;34.50;;;6.17;;
11761;SDS011;5938;47.098;15.474;2024-01-07T08:06:10;33.90;;;6.07;;
11761;SDS011;5938;47.098;15.474;2024-01-07T08:10:13;37.20;;;7.07;;
11761;SDS011;5938;47.098;15.474;2024-01-07T08:14:17;35.20;;;5.50;;
11761;SDS011;5938;47.098;15.474;2024-01-07T08:18:20;34.07;;;5.57;;
11761;SDS011;5938;47.098;15.474;2024-01-07T08:22:25;33.37;;;5.00;;
11761;SDS011;5938;47.098;15.474;2024-01-07T08:26:29;32.83;;;4.93;;
11761;SDS011;5938;47.098;15.474;2024-01-07T08:30:32;32.77;;;4.00;;
11761;SDS011;5938;47.098;15.474;2024-01-07T08:34:36;32.07;;;4.40;;
11761;SDS011;5938;47.098;15.474;2024-01-07T08:38:42;32.33;;;3.90;;
11761;SDS011;5938;47.098;15.474;2024-01-07T08:42:45;31.97;;;3.53;;
11761;SDS011;5938;47.098;15.474;2024-01-07T08:46:48;31.43;;;3.30;;
11761;SDS011;5938;47.098;15.474;2024-01-07T08:50:51;32.20;;;3.63;;
11761;SDS011;5938;47.098;15.474;2024-01-07T08:54:56;31.23;;;3.33;;
11761;SDS011;5938;47.098;15.474;2024-01-07T08:58:59;33.07;;;3.60;;
11761;SDS011;5938;47.098;15.474;2024-01-07T09:03:03;32.40;;;3.30;;
11761;SDS011;5938;47.098;15.474;2024-01-07T09:07:06;31.50;;;3.50;;
11761;SDS011;5938;47.098;15.474;2024-01-07T09:11:11;30.90;;;2.73;;
11761;SDS011;5938;47.098;15.474;2024-01-07T09:15:14;32.37;;;3.20;;
11761;SDS011;5938;47.098;15.474;2024-01-07T09:19:21;32.37;;;3.13;;
11761;SDS011;5938;47.098;15.474;2024-01-07T09:23:25;31.10;;;2.97;;
11761;SDS011;5938;47.098;15.474;2024-01-07T09:27:29;35.20;;;3.03;;
11761;SDS011;5938;47.098;15.474;2024-01-07T09:31:33;31.27;;;2.73;;
11761;SDS011;5938;47.098;15.474;2024-01-07T09:35:37;31.00;;;3.10;;
11761;SDS011;5938;47.098;15.474;2024-01-07T09:39:41;31.67;;;2.90;;
11761;SDS011;5938;47.098;15.474;2024-01-07T09:43:45;33.53;;;4.83;;
11761;SDS011;5938;47.098;15.474;2024-01-07T09:47:49;34.63;;;4.00;;
11761;SDS011;5938;47.098;15.474;2024-01-07T09:51:53;35.60;;;3.40;;
11761;SDS011;5938;47.098;15.474;2024-01-07T09:56:05;33.43;;;3.60;;
11761;SDS011;5938;47.098;15.474;2024-01-07T10:00:13;32.17;;;3.10;;
11761;SDS011;5938;47.098;15.474;2024-01-07T10:04:17;30.40;;;3.40;;
11761;SDS011;5938;47.098;15.474;2024-01-07T10:08:21;33.00;;;3.93;;
11761;SDS011;5938;47.098;15.474;2024-01-07T10:12:27;31.17;;;3.10;;
11761;SDS011;5938;47.098;15.474;2024-01-07T10:16:32;31.17;;;3.07;;
11761;SDS011;5938;47.098;15.474;2024-01-07T10:20:35;31.00;;;2.87;;
11761;SDS011;5938;47.098;15.474;2024-01-07T10:24:43;33.03;;;3.63;;
11761;SDS011;5938;47.098;15.474;2024-01-07T10:28:47;30.73;;;2.97;;
11761;SDS011;5938;47.098;15.474;2024-01-07T10:32:52;31.40;;;3.47;;
11761;SDS011;5938;47.098;15.474;2024-01-07T10:36:58;30.20;;;2.53;;
11761;SDS011;5938;47.098;15.474;2024-01-07T10:41:02;31.30;;;2.93;;
11761;SDS011;5938;47.098;15.474;2024-01-07T10:45:10;31.63;;;3.20;;
11761;SDS011;5938;47.098;15.474;2024-01-07T10:49:16;32.20;;;3.30;;
11761;SDS011;5938;47.098;15.474;2024-01-07T10:53:23;32.00;;;4.00;;
11761;SDS011;5938;47.098;15.474;2024-01-07T10:57:32;31.67;;;3.87;;
11761;SDS011;5938;47.098;15.474;2024-01-07T11:01:40;35.43;;;6.83;;
11761;SDS011;5938;47.098;15.474;2024-01-07T11:05:47;32.20;;;3.60;;
11761;SDS011;5938;47.098;15.474;2024-01-07T11:09:56;34.90;;;4.20;;
11761;SDS011;5938;47.098;15.474;2024-01-07T11:18:40;31.77;;;3.93;;
11761;SDS011;5938;47.098;15.474;2024-01-07T11:22:52;32.60;;;5.03;;
11761;SDS011;5938;47.098;15.474;2024-01-07T11:27:29;33.47;;;5.20;;
11761;SDS011;5938;47.098;15.474;2024-01-07T11:31:43;31.97;;;4.87;;
11761;SDS011;5938;47.098;15.474;2024-01-07T11:35:55;32.17;;;4.67;;
11761;SDS011;5938;47.098;15.474;2024-01-07T11:40:03;31.50;;;4.17;;
11761;SDS011;5938;47.098;15.474;2024-01-07T11:44:08;33.07;;;5.47;;
11761;SDS011;5938;47.098;15.474;2024-01-07T11:48:13;32.23;;;4.20;;
11761;SDS011;5938;47.098;15.474;2024-01-07T11:52:17;33.17;;;4.37;;
11761;SDS011;5938;47.098;15.474;2024-01-07T11:56:23;34.93;;;5.63;;
11761;SDS011;5938;47.098;15.474;2024-01-07T12:00:27;33.00;;;5.03;;
11761;SDS011;5938;47.098;15.474;2024-01-07T12:04:33;32.70;;;5.20;;
11761;SDS011;5938;47.098;15.474;2024-01-07T12:08:37;32.67;;;4.63;;
11761;SDS011;5938;47.098;15.474;2024-01-07T12:12:41;32.17;;;4.37;;
11761;SDS011;5938;47.098;15.474;2024-01-07T12:16:45;31.00;;;4.30;;
11761;SDS011;5938;47.098;15.474;2024-01-07T12:20:55;31.23;;;4.50;;
11761;SDS011;5938;47.098;15.474;2024-01-07T12:24:59;31.20;;;4.00;;
11761;SDS011;5938;47.098;15.474;2024-01-07T12:29:06;31.03;;;4.13;;
11761;SDS011;5938;47.098;15.474;2024-01-07T12:33:11;32.93;;;4.30;;
11761;SDS011;5938;47.098;15.474;2024-01-07T12:37:19;31.23;;;4.00;;
11761;SDS011;5938;47.098;15.474;2024-01-07T12:41:23;31.20;;;4.07;;
11761;SDS011;5938;47.098;15.474;2024-01-07T12:45:28;31.70;;;4.50;;
11761;SDS011;5938;47.098;15.474;2024-01-07T12:49:31;33.30;;;5.20;;
11761;SDS011;5938;47.098;15.474;2024-01-07T12:53:34;31.67;;;4.80;;
11761;SDS011;5938;47.098;15.474;2024-01-07T12:57:38;32.10;;;5.20;;
11761;SDS011;5938;47.098;15.474;2024-01-07T13:01:43;35.40;;;5.03;;
11761;SDS011;5938;47.098;15.474;2024-01-07T13:05:46;31.00;;;4.23;;
11761;SDS011;5938;47.098;15.474;2024-01-07T13:09:52;32.80;;;4.83;;
11761;SDS011;5938;47.098;15.474;2024-01-07T13:13:55;32.53;;;5.67;;
11761;SDS011;5938;47.098;15.474;2024-01-07T13:18:03;33.40;;;6.30;;
11761;SDS011;5938;47.098;15.474;2024-01-07T13:22:07;31.90;;;5.10;;
11761;SDS011;5938;47.098;15.474;2024-01-07T13:26:10;33.73;;;6.83;;
11761;SDS011;5938;47.098;15.474;2024-01-07T13:30:14;36.13;;;7.47;;
11761;SDS011;5938;47.098;15.474;2024-01-07T13:34:19;33.40;;;6.60;;
11761;SDS011;5938;47.098;15.474;2024-01-07T13:38:23;33.77;;;7.10;;
11761;SDS011;5938;47.098;15.474;2024-01-07T13:42:26;33.23;;;5.20;;
11761;SDS011;5938;47.098;15.474;2024-01-07T13:46:29;32.90;;;6.07;;
11761;SDS011;5938;47.098;15.474;2024-01-07T13:50:34;35.27;;;7.73;;
11761;SDS011;5938;47.098;15.474;2024-01-07T13:54:38;33.60;;;6.60;;
11761;SDS011;5938;47.098;15.474;2024-01-07T13:58:41;33.80;;;5.93;;
11761;SDS011;5938;47.098;15.474;2024-01-07T14:02:50;33.50;;;6.50;;
11761;SDS011;5938;47.098;15.474;2024-01-07T14:06:55;34.27;;;6.93;;
11761;SDS011;5938;47.098;15.474;2024-01-07T14:10:58;34.23;;;6.50;;
11761;SDS011;5938;47.098;15.474;2024-01-07T14:15:03;36.30;;;8.10;;
11761;SDS011;5938;47.098;15.474;2024-01-07T14:19:07;35.60;;;9.50;;
11761;SDS011;5938;47.098;15.474;2024-01-07T14:23:11;36.10;;;8.30;;
11761;SDS011;5938;47.098;15.474;2024-01-07T14:27:15;37.17;;;8.50;;
11761;SDS011;5938;47.098;15.474;2024-01-07T14:31:18;34.93;;;7.20;;
11761;SDS011;5938;47.098;15.474;2024-01-07T14:35:22;34.30;;;7.60;;
11761;SDS011;5938;47.098;15.474;2024-01-07T14:39:29;36.10;;;8.00;;
11761;SDS011;5938;47.098;15.474;2024-01-07T14:43:32;35.37;;;7.43;;
11761;SDS011;5938;47.098;15.474;2024-01-07T14:47:35;32.70;;;7.30;;
11761;SDS011;5938;47.098;15.474;2024-01-07T14:51:39;34.60;;;7.83;;
11761;SDS011;5938;47.098;15.474;2024-01-07T14:55:43;36.67;;;8.13;;
11761;SDS011;5938;47.098;15.474;2024-01-07T14:59:47;38.17;;;9.70;;
11761;SDS011;5938;47.098;15.474;2024-01-07T15:03:50;37.97;;;8.80;;
11761;SDS011;5938;47.098;15.474;2024-01-07T15:07:53;38.53;;;10.53;;
11761;SDS011;5938;47.098;15.474;2024-01-07T15:11:58;40.77;;;10.30;;
11761;SDS011;5938;47.098;15.474;2024-01-07T15:16:01;37.17;;;9.13;;
11761;SDS011;5938;47.098;15.474;2024-01-07T15:20:05;35.40;;;8.53;;
11761;SDS011;5938;47.098;15.474;2024-01-07T15:24:09;35.63;;;9.10;;
11761;SDS011;5938;47.098;15.474;2024-01-07T15:28:17;38.30;;;10.03;;
11761;SDS011;5938;47.098;15.474;2024-01-07T15:32:20;37.80;;;9.20;;
11761;SDS011;5938;47.098;15.474;2024-01-07T15:36:23;36.40;;;8.60;;
11761;SDS011;5938;47.098;15.474;2024-01-07T15:40:27;39.00;;;9.70;;
11761;SDS011;5938;47.098;15.474;2024-01-07T15:44:33;39.07;;;10.30;;
11761;SDS011;5938;47.098;15.474;2024-01-07T15:48:36;39.73;;;9.80;;
11761;SDS011;5938;47.098;15.474;2024-01-07T15:52:40;37.90;;;9.83;;
11761;SDS011;5938;47.098;15.474;2024-01-07T15:56:47;39.83;;;9.50;;
11761;SDS011;5938;47.098;15.474;2024-01-07T16:00:52;41.97;;;11.33;;
11761;SDS011;5938;47.098;15.474;2024-01-07T16:04:56;43.87;;;10.27;;
11761;SDS011;5938;47.098;15.474;2024-01-07T16:08:59;38.80;;;9.73;;
11761;SDS011;5938;47.098;15.474;2024-01-07T16:13:02;36.50;;;8.30;;
11761;SDS011;5938;47.098;15.474;2024-01-07T16:17:07;41.20;;;10.00;;
11761;SDS011;5938;47.098;15.474;2024-01-07T16:21:11;40.70;;;9.33;;
11761;SDS011;5938;47.098;15.474;2024-01-07T16:25:14;39.97;;;9.50;;
11761;SDS011;5938;47.098;15.474;2024-01-07T16:29:18;39.83;;;9.63;;
11761;SDS011;5938;47.098;15.474;2024-01-07T16:33:24;39.47;;;9.77;;
11761;SDS011;5938;47.098;15.474;2024-01-07T16:37:27;38.67;;;10.60;;
11761;SDS011;5938;47.098;15.474;2024-01-07T16:41:31;40.60;;;11.03;;
11761;SDS011;5938;47.098;15.474;2024-01-07T16:45:34;41.77;;;10.90;;
11761;SDS011;5938;47.098;15.474;2024-01-07T16:49:40;43.87;;;12.63;;
11761;SDS011;5938;47.098;15.474;2024-01-07T16:53:46;39.80;;;11.70;;
11761;SDS011;5938;47.098;15.474;2024-01-07T16:57:49;39.77;;;10.23;;
11761;SDS011;5938;47.098;15.474;2024-01-07T17:01:53;42.37;;;11.47;;
11761;SDS011;5938;47.098;15.474;2024-01-07T17:05:58;57.70;;;24.93;;
11761;SDS011;5938;47.098;15.474;2024-01-07T17:10:04;43.40;;;13.97;;
11761;SDS011;5938;47.098;15.474;2024-01-07T17:14:09;41.73;;;12.40;;
11761;SDS011;5938;47.098;15.474;2024-01-07T17:18:12;40.97;;;11.40;;
11761;SDS011;5938;47.098;15.474;2024-01-07T17:22:17;41.63;;;12.13;;
11761;SDS011;5938;47.098;15.474;2024-01-07T17:26:20;41.67;;;11.23;;
11761;SDS011;5938;47.098;15.474;2024-01-07T17:30:25;46.47;;;12.93;;
11761;SDS011;5938;47.098;15.474;2024-01-07T17:34:28;43.70;;;13.63;;
11761;SDS011;5938;47.098;15.474;2024-01-07T17:38:33;45.57;;;13.80;;
11761;SDS011;5938;47.098;15.474;2024-01-07T17:42:36;47.60;;;15.30;;
11761;SDS011;5938;47.098;15.474;2024-01-07T17:46:40;45.10;;;14.83;;
11761;SDS011;5938;47.098;15.474;2024-01-07T17:50:46;44.97;;;13.53;;
11761;SDS011;5938;47.098;15.474;2024-01-07T17:54:51;43.90;;;13.27;;
11761;SDS011;5938;47.098;15.474;2024-01-07T17:58:55;43.47;;;12.83;;
11761;SDS011;5938;47.098;15.474;2024-01-07T18:02:59;42.30;;;11.60;;
11761;SDS011;5938;47.098;15.474;2024-01-07T18:07:07;43.87;;;12.97;;
11761;SDS011;5938;47.098;15.474;2024-01-07T18:11:13;40.90;;;10.43;;
11761;SDS011;5938;47.098;15.474;2024-01-07T18:15:16;39.80;;;9.67;;
11761;SDS011;5938;47.098;15.474;2024-01-07T18:19:20;34.60;;;5.73;;
11761;SDS011;5938;47.098;15.474;2024-01-07T18:23:23;34.67;;;4.97;;
11761;SDS011;5938;47.098;15.474;2024-01-07T18:27:28;34.47;;;4.67;;
11761;SDS011;5938;47.098;15.474;2024-01-07T18:31:31;34.63;;;4.00;;
11761;SDS011;5938;47.098;15.474;2024-01-07T18:35:34;33.63;;;4.53;;
11761;SDS011;5938;47.098;15.474;2024-01-07T18:39:39;34.83;;;4.73;;
11761;SDS011;5938;47.098;15.474;2024-01-07T18:43:44;32.70;;;4.10;;
11761;SDS011;5938;47.098;15.474;2024-01-07T18:47:49;33.93;;;3.73;;
11761;SDS011;5938;47.098;15.474;2024-01-07T18:51:52;35.33;;;3.93;;
11761;SDS011;5938;47.098;15.474;2024-01-07T18:55:55;32.50;;;3.23;;
11761;SDS011;5938;47.098;15.474;2024-01-07T19:00:00;31.73;;;2.93;;
11761;SDS011;5938;47.098;15.474;2024-01-07T19:04:05;32.33;;;3.43;;
11761;SDS011;5938;47.098;15.474;2024-01-07T19:08:09;32.37;;;4.00;;
11761;SDS011;5938;47.098;15.474;2024-01-07T19:12:12;32.80;;;3.30;;
11761;SDS011;5938;47.098;15.474;2024-01-07T19:16:17;32.27;;;2.90;;
11761;SDS011;5938;47.098;15.474;2024-01-07T19:20:20;31.67;;;3.17;;
11761;SDS011;5938;47.098;15.474;2024-01-07T19:24:31;31.83;;;3.07;;
11761;SDS011;5938;47.098;15.474;2024-01-07T19:28:35;36.03;;;2.80;;
11761;SDS011;5938;47.098;15.474;2024-01-07T19:32:39;31.80;;;3.63;;
11761;SDS011;5938;47.098;15.474;2024-01-07T19:36:44;32.97;;;3.47;;
11761;SDS011;5938;47.098;15.474;2024-01-07T19:40:48;30.73;;;2.87;;
11761;SDS011;5938;47.098;15.474;2024-01-07T19:44:51;31.70;;;4.40;;
11761;SDS011;5938;47.098;15.474;2024-01-07T19:48:57;31.40;;;3.57;;
11761;SDS011;5938;47.098;15.474;2024-01-07T19:53:02;32.00;;;3.20;;
11761;SDS011;5938;47.098;15.474;2024-01-07T19:57:13;31.00;;;3.00;;
11761;SDS011;5938;47.098;15.474;2024-01-07T20:01:16;31.80;;;3.80;;
11761;SDS011;5938;47.098;15.474;2024-01-07T20:05:21;31.60;;;3.70;;
11761;SDS011;5938;47.098;15.474;2024-01-07T20:09:26;31.47;;;3.53;;
11761;SDS011;5938;47.098;15.474;2024-01-07T20:13:29;31.70;;;3.97;;
11761;SDS011;5938;47.098;15.474;2024-01-07T20:17:33;30.87;;;2.60;;
11761;SDS011;5938;47.098;15.474;2024-01-07T20:21:39;31.77;;;3.00;;
11761;SDS011;5938;47.098;15.474;2024-01-07T20:25:45;33.83;;;3.10;;
11761;SDS011;5938;47.098;15.474;2024-01-07T20:30:00;32.13;;;3.27;;
11761;SDS011;5938;47.098;15.474;2024-01-07T20:34:16;31.00;;;3.13;;
11761;SDS011;5938;47.098;15.474;2024-01-07T20:38:24;30.60;;;2.40;;
11761;SDS011;5938;47.098;15.474;2024-01-07T20:42:35;31.50;;;2.70;;
11761;SDS011;5938;47.098;15.474;2024-01-07T20:46:44;30.97;;;3.23;;
11761;SDS011;5938;47.098;15.474;2024-01-07T20:50:48;31.50;;;3.50;;
11761;SDS011;5938;47.098;15.474;2024-01-07T20:54:56;31.70;;;3.50;;
11761;SDS011;5938;47.098;15.474;2024-01-07T20:59:05;32.20;;;3.40;;
11761;SDS011;5938;47.098;15.474;2024-01-07T21:03:11;30.47;;;2.93;;
11761;SDS011;5938;47.098;15.474;2024-01-07T21:07:16;30.13;;;1.93;;
11761;SDS011;5938;47.098;15.474;2024-01-07T21:11:29;31.30;;;2.80;;
11761;SDS011;5938;47.098;15.474;2024-01-07T21:15:39;30.87;;;2.80;;
11761;SDS011;5938;47.098;15.474;2024-01-07T21:19:43;32.50;;;9.33;;
11761;SDS011;5938;47.098;15.474;2024-01-07T21:23:50;32.73;;;2.90;;
11761;SDS011;5938;47.098;15.474;2024-01-07T21:28:01;30.60;;;2.93;;
11761;SDS011;5938;47.098;15.474;2024-01-07T21:32:06;30.17;;;2.53;;
11761;SDS011;5938;47.098;15.474;2024-01-07T21:36:11;31.43;;;2.63;;
11761;SDS011;5938;47.098;15.474;2024-01-07T21:40:19;30.90;;;2.97;;
11761;SDS011;5938;47.098;15.474;2024-01-07T21:44:24;31.87;;;3.13;;
11761;SDS011;5938;47.098;15.474;2024-01-07T21:48:32;31.70;;;3.20;;
11761;SDS011;5938;47.098;15.474;2024-01-07T21:52:36;32.23;;;3.03;;
11761;SDS011;5938;47.098;15.474;2024-01-07T21:56:44;30.27;;;2.70;;
11761;SDS011;5938;47.098;15.474;2024-01-07T22:00:50;31.80;;;2.90;;
11761;SDS011;5938;47.098;15.474;2024-01-07T22:04:54;30.70;;;2.80;;
11761;SDS011;5938;47.098;15.474;2024-01-07T22:08:58;30.53;;;2.40;;
11761;SDS011;5938;47.098;15.474;2024-01-07T22:13:04;30.50;;;2.50;;
11761;SDS011;5938;47.098;15.474;2024-01-07T22:17:14;30.47;;;2.57;;
11761;SDS011;5938;47.098;15.474;2024-01-07T22:21:22;30.60;;;2.83;;
11761;SDS011;5938;47.098;15.474;2024-01-07T22:25:25;30.40;;;2.37;;
11761;SDS011;5938;47.098;15.474;2024-01-07T22:29:29;31.57;;;2.60;;
11761;SDS011;5938;47.098;15.474;2024-01-07T22:33:35;30.23;;;3.20;;
11761;SDS011;5938;47.098;15.474;2024-01-07T22:37:38;30.60;;;2.33;;
11761;SDS011;5938;47.098;15.474;2024-01-07T22:41:42;31.90;;;2.67;;
11761;SDS011;5938;47.098;15.474;2024-01-07T22:45:46;30.20;;;2.47;;
11761;SDS011;5938;47.098;15.474;2024-01-07T22:49:51;30.57;;;2.33;;
11761;SDS011;5938;47.098;15.474;2024-01-07T22:53:55;30.87;;;2.40;;
11761;SDS011;5938;47.098;15.474;2024-01-07T22:57:59;31.43;;;3.00;;
11761;SDS011;5938;47.098;15.474;2024-01-07T23:02:03;31.17;;;3.00;;
11761;SDS011;5938;47.098;15.474;2024-01-07T23:06:08;30.67;;;4.10;;
11761;SDS011;5938;47.098;15.474;2024-01-07T23:10:12;30.37;;;1.83;;
11761;SDS011;5938;47.098;15.474;2024-01-07T23:14:16;31.30;;;2.70;;
11761;SDS011;5938;47.098;15.474;2024-01-07T23:18:19;31.13;;;3.03;;
11761;SDS011;5938;47.098;15.474;2024-01-07T23:22:25;30.23;;;2.63;;
11761;SDS011;5938;47.098;15.474;2024-01-07T23:26:28;30.70;;;2.40;;
11761;SDS011;5938;47.098;15.474;2024-01-07T23:30:32;31.67;;;2.50;;
11761;SDS011;5938;47.098;15.474;2024-01-07T23:34:36;30.40;;;2.60;;
11761;SDS011;5938;47.098;15.474;2024-01-07T23:38:41;31.83;;;6.00;;
11761;SDS011;5938;47.098;15.474;2024-01-07T23:42:44;30.90;;;2.40;;
11761;SDS011;5938;47.098;15.474;2024-01-07T23:46:48;31.50;;;2.80;;
11761;SDS011;5938;47.098;15.474;2024-01-07T23:50:51;32.43;;;3.27;;
11761;SDS011;5938;47.098;15.474;2024-01-07T23:54:56;30.73;;;2.23;;
11761;SDS011;5938;47.098;15.474;2024-01-07T23:59:00;30.00;;;2.13;;
